Time;durP1;ratioP1;P1;durP2;ratioP2;P2;SDS_P1;SDS_P2;PMS_P1;PMS_P2;Temp;Humidity;BMP_temperature;BMP_pressure;BME280_temperature;BME280_humidity;BME280_pressure;Samples;Min_cycle;Max_cycle;Signal;HPM_P1;HPM_P2
2022/12/13 00:01:53;;;;;;;6.38;5.82;;;16.80;49.10;;;;;;4982362;28;20279;-68
2022/12/13 00:04:21;;;;;;;6.32;5.72;;;16.80;49.10;;;;;;5024264;28;20255;-69
2022/12/13 00:06:48;;;;;;;6.63;6.03;;;16.80;49.10;;;;;;5007770;28;20185;-68
2022/12/13 00:09:17;;;;;;;6.32;5.72;;;16.80;49.10;;;;;;5024255;28;20181;-68
2022/12/13 00:11:44;;;;;;;6.82;6.10;;;16.80;49.20;;;;;;5007584;28;20196;-68
2022/12/13 00:14:12;;;;;;;6.68;6.03;;;16.80;49.20;;;;;;4975414;28;20235;-68
2022/12/13 00:16:39;;;;;;;6.05;5.47;;;16.80;49.10;;;;;;4991207;28;20228;-68
2022/12/13 00:19:05;;;;;;;5.97;5.40;;;16.80;49.10;;;;;;4975397;28;20288;-68
2022/12/13 00:21:33;;;;;;;6.30;5.70;;;16.80;49.20;;;;;;5024053;28;20299;-69
2022/12/13 00:24:00;;;;;;;6.70;6.10;;;16.80;49.10;;;;;;5007519;28;20304;-69
2022/12/13 00:26:29;;;;;;;5.88;5.38;;;16.80;49.10;;;;;;5023669;28;20196;-68
2022/12/13 00:29:02;;;;;;;6.43;5.82;;;16.80;49.10;;;;;;5005061;28;20196;-69
2022/12/13 00:31:30;;;;;;;5.82;5.32;;;16.80;49.10;;;;;;4964050;28;20193;-69
2022/12/13 00:33:58;;;;;;;5.90;5.30;;;16.80;49.00;;;;;;4991506;28;20356;-69
2022/12/13 00:36:23;;;;;;;5.95;5.35;;;16.80;49.00;;;;;;4975415;28;20269;-69
2022/12/13 00:39:01;;;;;;;6.05;5.45;;;16.80;49.10;;;;;;4975407;28;20221;-68
2022/12/13 00:41:34;;;;;;;5.55;5.05;;;16.80;49.00;;;;;;4975113;28;20297;-69
2022/12/13 00:44:02;;;;;;;5.93;5.40;;;16.80;49.60;;;;;;4959031;28;20251;-69
2022/12/13 00:46:29;;;;;;;5.68;5.18;;;16.80;48.80;;;;;;4976084;28;20197;-69
2022/12/13 00:48:58;;;;;;;5.28;4.85;;;16.70;48.70;;;;;;4976185;28;20173;-68
2022/12/13 00:51:26;;;;;;;5.30;4.80;;;16.70;48.90;;;;;;4975182;28;20221;-69
2022/12/13 00:53:53;;;;;;;5.68;5.18;;;16.70;48.80;;;;;;5007396;28;20209;-68
2022/12/13 00:56:24;;;;;;;5.25;4.75;;;16.70;48.90;;;;;;4975895;28;20190;-69
2022/12/13 00:58:50;;;;;;;5.40;4.90;;;16.70;49.30;;;;;;5007320;28;20193;-68
2022/12/13 01:01:20;;;;;;;5.20;4.70;;;16.80;48.70;;;;;;4966403;28;20245;-68
2022/12/13 01:03:46;;;;;;;5.40;4.93;;;16.70;48.80;;;;;;4974924;28;20209;-69
2022/12/13 01:06:21;;;;;;;5.13;4.63;;;16.70;48.80;;;;;;4990661;28;20178;-69
2022/12/13 01:08:48;;;;;;;5.15;4.65;;;16.70;48.60;;;;;;4991405;28;20609;-68
2022/12/13 01:11:16;;;;;;;5.55;5.05;;;16.70;48.90;;;;;;4974983;28;20186;-68
2022/12/13 01:13:43;;;;;;;5.05;4.55;;;16.70;48.80;;;;;;4975707;28;20701;-69
2022/12/13 01:16:11;;;;;;;4.88;4.47;;;16.70;48.70;;;;;;4990496;28;20277;-69
2022/12/13 01:18:39;;;;;;;4.78;4.38;;;16.70;48.60;;;;;;4958379;28;20654;-68
2022/12/13 01:21:13;;;;;;;4.65;4.25;;;16.70;48.70;;;;;;4975647;28;20209;-69
2022/12/13 01:23:40;;;;;;;4.93;4.43;;;16.70;48.60;;;;;;4974337;28;20217;-69
2022/12/13 01:26:11;;;;;;;5.05;4.55;;;16.70;48.60;;;;;;4974109;28;20260;-69
2022/12/13 01:28:37;;;;;;;5.28;4.78;;;16.70;48.60;;;;;;4971016;28;20194;-69
2022/12/13 01:31:12;;;;;;;4.70;4.20;;;16.70;48.60;;;;;;4974538;28;20190;-69
2022/12/13 01:33:39;;;;;;;4.55;4.15;;;16.70;48.60;;;;;;4958044;28;20213;-69
2022/12/13 01:36:13;;;;;;;4.68;4.28;;;16.70;48.60;;;;;;4975133;28;20214;-69
2022/12/13 01:38:38;;;;;;;4.50;4.20;;;16.70;48.60;;;;;;4990400;28;20181;-68
2022/12/13 01:41:05;;;;;;;4.47;4.07;;;16.70;48.60;;;;;;4990389;28;20303;-69
2022/12/13 01:43:50;;;;;;;4.63;4.22;;;16.70;48.60;;;;;;4974868;28;20761;-69
2022/12/13 01:46:17;;;;;;;4.43;4.03;;;16.70;48.60;;;;;;4975000;28;20174;-68
2022/12/13 01:48:53;;;;;;;4.70;4.30;;;16.70;48.60;;;;;;4973891;28;20233;-68
2022/12/13 01:51:26;;;;;;;4.30;3.90;;;16.70;48.60;;;;;;4990498;28;20269;-69
2022/12/13 01:53:56;;;;;;;4.55;4.15;;;16.70;48.60;;;;;;4973947;28;20296;-69
2022/12/13 01:56:35;;;;;;;4.35;3.95;;;16.70;48.60;;;;;;4970369;28;20187;-69
2022/12/13 01:59:05;;;;;;;4.65;4.25;;;16.70;48.60;;;;;;4993283;28;20279;-69
2022/12/13 02:01:31;;;;;;;4.22;3.83;;;16.70;48.60;;;;;;5017526;28;20287;-69
2022/12/13 02:03:57;;;;;;;3.88;3.58;;;16.70;48.60;;;;;;5026073;28;20203;-69
2022/12/13 02:06:37;;;;;;;4.18;3.78;;;16.70;48.60;;;;;;5025987;28;20188;-69
2022/12/13 02:09:06;;;;;;;4.20;3.80;;;16.60;48.50;;;;;;5009402;28;20177;-68
2022/12/13 02:11:38;;;;;;;4.80;4.10;;;16.70;48.60;;;;;;5025920;28;20210;-68
2022/12/13 02:14:04;;;;;;;3.97;3.55;;;16.60;48.50;;;;;;5001333;28;20210;-69
2022/12/13 02:16:49;;;;;;;4.35;3.95;;;16.70;48.60;;;;;;4970060;28;20281;-68
2022/12/13 02:20:11;;;;;;;3.97;3.55;;;16.60;48.50;;;;;;4970409;28;20186;-68
2022/12/13 02:23:10;;;;;;;4.40;3.95;;;16.70;48.60;;;;;;4986440;28;20209;-68
2022/12/13 02:26:13;;;;;;;3.88;3.58;;;16.60;48.10;;;;;;4969876;28;20190;-67
2022/12/13 02:29:08;;;;;;;4.63;4.22;;;16.70;48.60;;;;;;4971121;28;20217;-69
2022/12/13 02:31:39;;;;;;;3.58;3.28;;;16.60;48.40;;;;;;5000758;28;20209;-69
2022/12/13 02:34:20;;;;;;;3.83;3.50;;;16.60;48.60;;;;;;5025531;28;20208;-69
2022/12/13 02:36:59;;;;;;;4.60;4.20;;;16.60;48.90;;;;;;5025143;28;20184;-68
2022/12/13 02:39:37;;;;;;;3.95;3.55;;;16.60;48.10;;;;;;5008762;28;20176;-69
2022/12/13 02:42:30;;;;;;;4.80;3.53;;;16.60;48.10;;;;;;4992662;28;20208;-68
2022/12/13 02:45:07;;;;;;;3.78;3.47;;;16.60;48.20;;;;;;4993348;28;20213;-69
2022/12/13 02:47:35;;;;;;;4.35;3.95;;;16.60;48.20;;;;;;5024957;28;20180;-69
2022/12/13 02:50:06;;;;;;;4.13;3.72;;;16.60;48.20;;;;;;5008614;28;20185;-68
2022/12/13 02:52:33;;;;;;;4.30;3.90;;;16.70;48.30;;;;;;5025140;28;20184;-68
2022/12/13 02:54:59;;;;;;;3.83;3.47;;;16.60;48.00;;;;;;4991539;28;20192;-68
2022/12/13 02:57:37;;;;;;;4.03;3.58;;;16.60;48.10;;;;;;5024915;28;20193;-68
2022/12/13 03:00:05;;;;;;;4.22;3.83;;;16.60;48.20;;;;;;4983866;28;20183;-68
2022/12/13 03:03:20;;;;;;;3.47;3.17;;;16.60;48.00;;;;;;5009514;28;20213;-69
2022/12/13 03:06:29;;;;;;;4.13;3.75;;;16.60;48.00;;;;;;4972794;28;20197;-69
2022/12/13 03:09:24;;;;;;;3.50;3.20;;;16.60;48.00;;;;;;4988812;28;20185;-68
2022/12/13 03:15:33;;;;;;;4.40;4.00;;;16.60;47.80;;;;;;5006746;28;20569;-68
2022/12/13 03:18:21;;;;;;;3.58;3.20;;;16.60;48.10;;;;;;4992777;28;20181;-69
2022/12/13 03:21:01;;;;;;;3.35;3.05;;;16.60;48.10;;;;;;4993060;28;20204;-69
2022/12/13 03:23:27;;;;;;;3.75;3.45;;;16.60;48.00;;;;;;5008117;28;20208;-69
2022/12/13 03:26:00;;;;;;;3.60;3.30;;;16.60;47.60;;;;;;4992820;28;20185;-69
2022/12/13 03:28:26;;;;;;;3.83;3.42;;;16.60;47.80;;;;;;5008127;28;20165;-68
2022/12/13 03:30:52;;;;;;;4.28;3.63;;;16.60;47.70;;;;;;4981561;28;20184;-69
2022/12/13 03:33:17;;;;;;;3.47;3.17;;;16.60;48.00;;;;;;4972546;28;20283;-69
2022/12/13 03:35:44;;;;;;;3.17;2.88;;;16.60;47.90;;;;;;4988298;28;20355;-69
2022/12/13 03:38:12;;;;;;;3.58;3.28;;;16.60;47.70;;;;;;4972394;28;20190;-69
2022/12/13 03:40:38;;;;;;;3.72;3.40;;;16.60;48.00;;;;;;4988715;28;20263;-69
2022/12/13 03:43:04;;;;;;;3.65;3.30;;;16.60;48.00;;;;;;4989344;28;20268;-69
2022/12/13 03:45:30;;;;;;;3.67;3.30;;;16.60;47.80;;;;;;4956350;28;20232;-68
2022/12/13 03:47:55;;;;;;;3.40;3.10;;;16.60;48.00;;;;;;4973348;28;20178;-69
2022/12/13 03:50:21;;;;;;;3.53;3.22;;;16.60;47.80;;;;;;4972358;28;20194;-69
2022/12/13 03:52:49;;;;;;;3.72;3.42;;;16.60;48.00;;;;;;4973251;28;20185;-69
2022/12/13 03:55:15;;;;;;;3.20;3.00;;;16.60;47.90;;;;;;4972076;28;20197;-68
2022/12/13 03:57:41;;;;;;;3.40;3.10;;;16.60;47.90;;;;;;4972342;28;20199;-69
2022/12/13 04:00:08;;;;;;;2.90;2.70;;;16.60;47.90;;;;;;4964137;28;20189;-69
2022/12/13 04:02:38;;;;;;;3.35;3.05;;;16.60;47.80;;;;;;4989632;28;20191;-69
2022/12/13 04:05:04;;;;;;;3.35;3.05;;;16.60;47.80;;;;;;5004862;28;20194;-69
2022/12/13 04:07:30;;;;;;;3.47;3.17;;;16.60;47.80;;;;;;4975552;28;20229;-69
2022/12/13 04:09:56;;;;;;;3.92;3.47;;;16.60;47.70;;;;;;4959755;28;20174;-69
2022/12/13 04:15:07;;;;;;;3.40;3.10;;;16.60;47.70;;;;;;4976786;28;20181;-68
2022/12/13 04:17:32;;;;;;;3.13;2.80;;;16.60;47.60;;;;;;4976671;28;20205;-69
2022/12/13 04:19:58;;;;;;;3.30;3.03;;;16.60;47.60;;;;;;4975635;28;20186;-68
2022/12/13 04:22:26;;;;;;;3.85;3.30;;;16.60;47.70;;;;;;4991772;28;20190;-69
2022/12/13 04:24:52;;;;;;;3.42;3.10;;;16.60;47.60;;;;;;4975739;28;20241;-69
2022/12/13 04:27:18;;;;;;;3.35;3.05;;;16.60;47.70;;;;;;4975449;28;20205;-69
2022/12/13 04:29:43;;;;;;;3.58;2.83;;;16.60;47.60;;;;;;4983463;28;20185;-69
2022/12/13 04:32:09;;;;;;;3.45;3.15;;;16.60;47.80;;;;;;4988147;28;20196;-69
2022/12/13 04:34:35;;;;;;;3.13;2.83;;;16.60;47.80;;;;;;5011037;28;20255;-68
2022/12/13 04:37:01;;;;;;;3.38;3.08;;;16.60;47.80;;;;;;5007534;28;20189;-68
2022/12/13 04:39:26;;;;;;;3.55;3.25;;;16.60;47.70;;;;;;4975228;28;20193;-69
2022/12/13 04:41:52;;;;;;;3.85;3.13;;;16.60;47.70;;;;;;4959437;28;20220;-69
2022/12/13 04:44:19;;;;;;;3.38;3.08;;;16.60;47.70;;;;;;4974877;28;20320;-69
2022/12/13 04:46:44;;;;;;;3.40;3.10;;;16.60;47.70;;;;;;4974999;28;20194;-69
2022/12/13 04:49:10;;;;;;;3.42;3.13;;;16.60;47.70;;;;;;4991322;28;20193;-69
2022/12/13 04:51:36;;;;;;;3.17;2.95;;;16.60;47.70;;;;;;4958508;28;20193;-69
2022/12/13 04:54:02;;;;;;;3.75;3.35;;;16.60;47.60;;;;;;5018965;28;20201;-69
2022/12/13 04:56:27;;;;;;;3.38;3.08;;;16.60;47.60;;;;;;5010607;28;20555;-69
2022/12/13 04:58:53;;;;;;;3.50;3.20;;;16.60;47.60;;;;;;4990905;28;20186;-69
2022/12/13 05:01:19;;;;;;;3.53;3.22;;;16.60;47.60;;;;;;5002379;28;20614;-69
2022/12/13 05:03:45;;;;;;;3.33;3.03;;;16.60;47.60;;;;;;5027140;28;20212;-68
2022/12/13 05:06:13;;;;;;;3.80;3.50;;;16.60;47.60;;;;;;4995313;28;20223;-68
2022/12/13 05:08:40;;;;;;;3.25;2.95;;;16.60;47.50;;;;;;5010777;28;20220;-69
2022/12/13 05:11:07;;;;;;;3.30;3.00;;;16.60;47.60;;;;;;4994262;28;20189;-69
2022/12/13 05:13:34;;;;;;;3.30;2.95;;;16.60;47.60;;;;;;4995278;28;20703;-68
2022/12/13 05:16:04;;;;;;;3.55;3.25;;;16.60;47.50;;;;;;5026766;28;20188;-68
2022/12/13 05:18:32;;;;;;;3.05;2.75;;;16.60;47.70;;;;;;5009631;28;20188;-69
2022/12/13 05:21:06;;;;;;;3.55;3.00;;;16.60;47.60;;;;;;5010265;28;20213;-69
2022/12/13 05:23:33;;;;;;;3.50;3.20;;;16.60;47.60;;;;;;5026744;28;20204;-69
2022/12/13 05:25:58;;;;;;;3.22;2.92;;;16.60;47.50;;;;;;5015675;28;20269;-69
2022/12/13 05:28:27;;;;;;;3.22;2.92;;;16.60;47.60;;;;;;4990349;28;20257;-69
2022/12/13 05:30:55;;;;;;;3.72;3.30;;;16.60;47.50;;;;;;5000522;28;20277;-69
2022/12/13 05:33:22;;;;;;;3.03;2.72;;;16.60;47.50;;;;;;4993731;28;20262;-69
2022/12/13 05:35:48;;;;;;;2.88;2.67;;;16.60;47.60;;;;;;5009958;28;20196;-69
2022/12/13 05:38:15;;;;;;;3.15;2.85;;;16.60;47.50;;;;;;4994836;28;20185;-70
2022/12/13 05:40:41;;;;;;;3.22;2.92;;;16.60;47.60;;;;;;4994741;28;20266;-69
2022/12/13 05:43:09;;;;;;;3.63;3.33;;;16.60;47.50;;;;;;5026539;28;20299;-69
2022/12/13 05:45:35;;;;;;;4.10;3.38;;;16.60;47.50;;;;;;5025651;28;20193;-68
2022/12/13 05:48:00;;;;;;;3.40;3.10;;;16.60;47.40;;;;;;4994522;28;20192;-69
2022/12/13 05:50:26;;;;;;;3.60;3.20;;;16.60;47.40;;;;;;5025999;28;20189;-69
2022/12/13 05:52:52;;;;;;;3.55;3.22;;;16.60;47.40;;;;;;5009650;28;20216;-69
2022/12/13 05:55:18;;;;;;;3.25;2.95;;;16.50;47.30;;;;;;5014685;28;20194;-69
2022/12/13 05:57:44;;;;;;;3.28;2.97;;;16.50;47.20;;;;;;4970386;28;20190;-69
2022/12/13 06:00:10;;;;;;;3.33;2.92;;;16.50;47.20;;;;;;4965424;28;20209;-69
2022/12/13 06:02:43;;;;;;;3.38;3.08;;;16.50;47.40;;;;;;4991880;28;20200;-68
2022/12/13 06:05:10;;;;;;;3.40;3.00;;;16.60;47.40;;;;;;4994228;28;20181;-71
2022/12/13 06:07:36;;;;;;;3.80;3.30;;;16.50;47.30;;;;;;5025593;28;20181;-70
2022/12/13 06:10:04;;;;;;;3.42;3.13;;;16.50;47.30;;;;;;5009297;28;20189;-69
2022/12/13 06:12:30;;;;;;;3.10;2.80;;;16.50;47.30;;;;;;5025771;28;20196;-68
2022/12/13 06:14:56;;;;;;;3.97;3.40;;;16.50;47.40;;;;;;5025617;28;20193;-69
2022/12/13 06:17:23;;;;;;;3.72;3.17;;;16.60;47.40;;;;;;4992473;28;20653;-69
2022/12/13 06:19:52;;;;;;;3.30;3.00;;;16.60;47.50;;;;;;5005895;28;20189;-69
2022/12/13 06:22:18;;;;;;;3.65;3.35;;;16.60;47.30;;;;;;5005384;28;20276;-69
2022/12/13 06:24:43;;;;;;;3.30;3.00;;;16.60;47.40;;;;;;4989193;28;20202;-69
2022/12/13 06:27:09;;;;;;;3.33;3.03;;;16.60;47.40;;;;;;4988854;28;20185;-69
2022/12/13 06:29:35;;;;;;;3.40;3.10;;;16.60;47.40;;;;;;4980947;28;20219;-69
2022/12/13 06:32:02;;;;;;;3.70;3.40;;;16.60;47.40;;;;;;4976250;28;20193;-69
2022/12/13 06:34:33;;;;;;;3.75;3.35;;;16.60;47.30;;;;;;4993300;28;20240;-69
2022/12/13 06:37:05;;;;;;;3.83;3.45;;;16.50;47.30;;;;;;5008318;28;20220;-69
2022/12/13 06:39:32;;;;;;;3.70;3.40;;;16.50;47.30;;;;;;4976019;28;20207;-69
2022/12/13 06:41:58;;;;;;;3.63;3.33;;;16.60;47.40;;;;;;5024880;28;20775;-69
2022/12/13 06:44:24;;;;;;;3.75;3.25;;;16.60;47.20;;;;;;5024863;28;20220;-69
2022/12/13 06:46:50;;;;;;;3.95;3.42;;;16.60;47.30;;;;;;4995513;28;20187;-69
2022/12/13 06:49:16;;;;;;;3.33;3.03;;;16.60;47.20;;;;;;4953563;28;20226;-69
2022/12/13 06:51:41;;;;;;;3.55;3.25;;;16.60;47.30;;;;;;4954351;28;20201;-69
2022/12/13 06:54:07;;;;;;;3.58;3.20;;;16.50;47.10;;;;;;4952943;28;20202;-69
2022/12/13 06:56:33;;;;;;;3.22;2.88;;;16.50;47.10;;;;;;4952903;28;20194;-69
2022/12/13 06:58:59;;;;;;;3.45;3.03;;;16.50;47.20;;;;;;4993880;28;20231;-69
2022/12/13 07:01:24;;;;;;;3.42;3.10;;;16.50;47.20;;;;;;4999946;28;20216;-69
2022/12/13 07:03:54;;;;;;;3.40;3.10;;;16.50;47.20;;;;;;5008097;28;20244;-69
2022/12/13 07:06:22;;;;;;;3.20;2.90;;;16.50;47.20;;;;;;5024262;28;20189;-69
2022/12/13 07:08:55;;;;;;;3.60;3.25;;;16.50;47.20;;;;;;5024694;28;20181;-69
2022/12/13 07:11:25;;;;;;;3.80;3.50;;;16.50;47.20;;;;;;5008013;28;20193;-69
2022/12/13 07:13:52;;;;;;;3.78;3.47;;;16.60;47.20;;;;;;4998011;28;20217;-69
2022/12/13 07:16:19;;;;;;;3.40;3.10;;;16.50;47.20;;;;;;4971903;28;20209;-69
2022/12/13 07:18:45;;;;;;;3.65;3.35;;;16.50;47.20;;;;;;4956128;28;20197;-69
2022/12/13 07:21:13;;;;;;;3.45;2.90;;;16.50;47.20;;;;;;4988439;28;20808;-69
2022/12/13 07:23:40;;;;;;;3.53;3.22;;;16.50;47.10;;;;;;4988110;28;20213;-69
2022/12/13 07:26:07;;;;;;;3.75;3.30;;;16.50;47.10;;;;;;4971932;28;20254;-68
2022/12/13 07:28:36;;;;;;;3.95;3.55;;;16.50;47.10;;;;;;4988056;28;20185;-69
2022/12/13 07:31:05;;;;;;;3.80;3.42;;;16.50;47.10;;;;;;4979907;28;20190;-69
2022/12/13 07:33:32;;;;;;;3.55;3.25;;;16.50;46.90;;;;;;4973056;28;20204;-69
2022/12/13 07:36:05;;;;;;;3.90;3.50;;;16.50;47.10;;;;;;4987870;28;20190;-69
2022/12/13 07:38:33;;;;;;;3.38;3.08;;;16.50;47.00;;;;;;4972044;28;20196;-69
2022/12/13 07:40:59;;;;;;;4.13;3.72;;;16.50;47.10;;;;;;4988897;28;20240;-69
2022/12/13 07:43:25;;;;;;;3.20;2.90;;;16.50;47.20;;;;;;4975813;28;20303;-69
2022/12/13 07:45:52;;;;;;;3.08;2.78;;;16.50;47.10;;;;;;4975575;28;20201;-69
2022/12/13 07:48:18;;;;;;;3.20;2.90;;;16.50;47.00;;;;;;4975854;28;20192;-69
2022/12/13 07:50:45;;;;;;;3.50;2.97;;;16.50;47.10;;;;;;4992034;28;20292;-69
2022/12/13 07:53:11;;;;;;;3.67;3.28;;;16.50;47.10;;;;;;4991759;28;20219;-69
2022/12/13 07:55:37;;;;;;;3.95;3.17;;;16.50;47.00;;;;;;4975148;28;20280;-69
2022/12/13 07:58:10;;;;;;;3.53;3.22;;;16.50;47.10;;;;;;4981123;28;20777;-69
2022/12/13 08:00:40;;;;;;;3.42;3.13;;;16.50;47.10;;;;;;4992719;28;20311;-69
2022/12/13 08:03:06;;;;;;;3.42;3.13;;;16.50;47.00;;;;;;5027711;28;20240;-69
2022/12/13 08:05:35;;;;;;;3.25;2.95;;;16.50;47.00;;;;;;5027785;28;20177;-69
2022/12/13 08:08:04;;;;;;;3.67;3.35;;;16.50;47.00;;;;;;4994601;28;20181;-69
2022/12/13 08:10:30;;;;;;;3.97;3.58;;;16.50;46.90;;;;;;5027848;28;20185;-69
2022/12/13 08:12:57;;;;;;;3.97;3.58;;;16.50;46.90;;;;;;4995877;28;20224;-69
2022/12/13 08:15:24;;;;;;;4.05;3.33;;;16.50;46.90;;;;;;5003068;28;20678;-69
2022/12/13 08:17:50;;;;;;;3.97;3.58;;;16.50;46.90;;;;;;4975002;28;20186;-69
2022/12/13 08:20:16;;;;;;;3.50;3.10;;;16.50;46.90;;;;;;4991385;28;20197;-69
2022/12/13 08:22:43;;;;;;;4.88;4.30;;;16.50;46.70;;;;;;4991051;28;20178;-69
2022/12/13 08:25:09;;;;;;;3.97;3.60;;;16.50;46.70;;;;;;5007534;28;20186;-69
2022/12/13 08:27:35;;;;;;;4.60;3.60;;;16.50;46.90;;;;;;4997649;28;20229;-69
2022/12/13 08:30:01;;;;;;;4.47;4.07;;;16.50;46.90;;;;;;4986287;28;20188;-69
2022/12/13 08:32:26;;;;;;;3.78;3.38;;;16.50;46.90;;;;;;5027439;28;20224;-69
2022/12/13 08:34:52;;;;;;;4.40;3.80;;;16.50;46.90;;;;;;4994337;28;20240;-69
2022/12/13 08:37:18;;;;;;;4.05;3.65;;;16.50;46.90;;;;;;5026969;28;20197;-69
2022/12/13 08:39:44;;;;;;;3.72;3.42;;;16.50;46.90;;;;;;5027251;28;20287;-69
2022/12/13 08:42:14;;;;;;;4.68;3.90;;;16.50;46.90;;;;;;5026892;28;20238;-69
2022/12/13 08:44:41;;;;;;;4.85;3.70;;;16.50;46.90;;;;;;4989894;28;20241;-68
2022/12/13 08:47:07;;;;;;;4.10;3.70;;;16.50;46.90;;;;;;4971499;28;20217;-69
2022/12/13 08:49:33;;;;;;;4.55;3.70;;;16.50;46.90;;;;;;4971739;28;20186;-69
2022/12/13 08:51:59;;;;;;;4.00;3.50;;;16.50;46.90;;;;;;4970853;28;20213;-69
2022/12/13 08:54:25;;;;;;;4.75;3.85;;;16.50;46.90;;;;;;4987185;28;20210;-69
2022/12/13 08:56:51;;;;;;;4.10;3.65;;;16.50;46.90;;;;;;4991272;28;20201;-69
2022/12/13 08:59:17;;;;;;;4.47;3.75;;;16.50;46.80;;;;;;5018395;28;20569;-69
2022/12/13 09:01:43;;;;;;;4.28;3.88;;;16.50;46.80;;;;;;5010225;28;20228;-69
2022/12/13 09:04:09;;;;;;;3.90;3.50;;;16.50;46.80;;;;;;4993695;28;20720;-69
2022/12/13 09:06:36;;;;;;;4.30;3.90;;;16.50;46.80;;;;;;4994877;28;20200;-69
2022/12/13 09:09:02;;;;;;;4.40;4.00;;;16.50;46.80;;;;;;4993623;28;20641;-69
2022/12/13 09:11:28;;;;;;;5.60;3.95;;;16.50;46.80;;;;;;5010101;28;20212;-69
2022/12/13 09:13:54;;;;;;;4.05;3.65;;;16.60;46.90;;;;;;5026367;28;20711;-69
2022/12/13 09:16:22;;;;;;;4.35;3.90;;;16.60;46.90;;;;;;5026566;28;20197;-69
2022/12/13 09:18:50;;;;;;;4.95;3.80;;;16.60;46.80;;;;;;4977310;28;20676;-69
2022/12/13 09:21:17;;;;;;;4.15;3.72;;;16.60;46.70;;;;;;5009827;28;20216;-69
2022/12/13 09:23:43;;;;;;;5.28;4.25;;;16.50;46.60;;;;;;4992506;28;20206;-69
2022/12/13 09:26:15;;;;;;;4.32;3.85;;;16.60;46.70;;;;;;4990005;28;20189;-69
2022/12/13 09:28:41;;;;;;;4.10;3.60;;;16.50;46.80;;;;;;4999038;28;20181;-70
2022/12/13 09:31:10;;;;;;;4.68;3.92;;;16.50;46.80;;;;;;5026137;28;20187;-69
2022/12/13 09:33:37;;;;;;;3.90;3.50;;;16.60;46.80;;;;;;5026083;28;20205;-70
2022/12/13 09:36:06;;;;;;;4.00;3.60;;;16.50;46.80;;;;;;5026054;28;20196;-69
2022/12/13 09:38:35;;;;;;;3.90;3.50;;;16.50;46.70;;;;;;5009557;28;20181;-69
2022/12/13 09:41:21;;;;;;;4.10;3.70;;;16.60;46.80;;;;;;4994361;28;20209;-69
2022/12/13 09:44:02;;;;;;;3.70;3.40;;;16.60;46.80;;;;;;5010447;28;20216;-69
2022/12/13 09:46:43;;;;;;;4.15;3.75;;;16.60;46.80;;;;;;4992922;28;20183;-69
2022/12/13 09:49:24;;;;;;;4.50;3.75;;;16.50;46.70;;;;;;5025872;28;20232;-69
2022/12/13 09:51:59;;;;;;;4.40;4.00;;;16.60;46.80;;;;;;5025846;28;20192;-69
2022/12/13 09:54:25;;;;;;;4.30;3.75;;;16.60;46.60;;;;;;5009048;28;20226;-69
2022/12/13 09:56:55;;;;;;;4.85;3.63;;;16.60;46.60;;;;;;5005914;28;20197;-70
2022/12/13 09:59:35;;;;;;;3.65;3.35;;;16.60;46.70;;;;;;5017744;28;20189;-69
2022/12/13 10:02:25;;;;;;;4.05;3.65;;;16.60;46.60;;;;;;5016789;28;20209;-69
2022/12/13 10:04:52;;;;;;;4.55;4.13;;;16.60;46.60;;;;;;4957618;28;20213;-69
2022/12/13 10:07:22;;;;;;;3.95;3.30;;;16.60;46.60;;;;;;4989779;28;20196;-69
2022/12/13 10:09:58;;;;;;;4.22;3.83;;;16.60;46.60;;;;;;4973595;28;20185;-69
2022/12/13 10:12:24;;;;;;;4.30;3.90;;;16.60;46.60;;;;;;4973820;28;20598;-70
2022/12/13 10:14:58;;;;;;;4.40;4.00;;;16.60;46.60;;;;;;4974596;28;20234;-69
2022/12/13 10:17:33;;;;;;;4.10;3.53;;;16.60;46.60;;;;;;4957104;28;20260;-70
2022/12/13 10:19:59;;;;;;;4.07;3.65;;;16.60;46.60;;;;;;4974598;28;20181;-69
2022/12/13 10:22:25;;;;;;;4.18;3.72;;;16.60;46.60;;;;;;4973149;28;20253;-69
2022/12/13 10:24:58;;;;;;;4.20;3.50;;;16.60;46.60;;;;;;4973384;28;20229;-69
2022/12/13 10:27:45;;;;;;;3.75;3.28;;;16.60;46.60;;;;;;5012305;28;20196;-69
2022/12/13 10:30:15;;;;;;;3.78;3.40;;;16.60;46.60;;;;;;4979515;28;20199;-69
2022/12/13 10:32:54;;;;;;;3.92;3.53;;;16.60;46.60;;;;;;4992951;28;20177;-69
2022/12/13 10:35:24;;;;;;;3.30;3.10;;;16.60;46.60;;;;;;5008943;28;20239;-70
2022/12/13 10:37:51;;;;;;;3.58;3.28;;;16.60;46.60;;;;;;5025064;28;20176;-69
2022/12/13 10:40:47;;;;;;;3.55;3.25;;;16.60;46.60;;;;;;4993567;28;20181;-70
2022/12/13 10:43:22;;;;;;;4.00;3.60;;;16.60;46.40;;;;;;5024503;28;20263;-70
2022/12/13 10:46:02;;;;;;;3.83;3.53;;;16.60;46.60;;;;;;5025366;28;20263;-69
2022/12/13 10:48:49;;;;;;;3.53;3.20;;;16.60;46.60;;;;;;5025448;28;20202;-69
2022/12/13 10:51:21;;;;;;;3.45;3.15;;;16.60;46.60;;;;;;5008607;28;20176;-70
2022/12/13 10:53:59;;;;;;;3.67;3.33;;;16.70;46.70;;;;;;4988152;28;20211;-69
2022/12/13 10:56:45;;;;;;;3.80;3.50;;;16.60;46.60;;;;;;4985567;28;20642;-70
2022/12/13 10:59:33;;;;;;;3.53;3.20;;;16.60;46.50;;;;;;4980423;28;20185;-70
2022/12/13 11:02:18;;;;;;;3.65;3.30;;;16.60;46.40;;;;;;4997058;28;20260;-69
2022/12/13 11:04:44;;;;;;;3.75;3.33;;;16.60;46.60;;;;;;4972626;28;20296;-70
2022/12/13 11:07:26;;;;;;;4.05;3.65;;;16.60;46.60;;;;;;4972066;28;20190;-69
2022/12/13 11:09:52;;;;;;;3.42;3.13;;;16.70;46.70;;;;;;4956881;28;20264;-70
2022/12/13 11:12:26;;;;;;;3.58;3.17;;;16.60;46.60;;;;;;4972222;28;20289;-69
2022/12/13 11:15:05;;;;;;;3.85;3.47;;;16.70;46.60;;;;;;4972494;28;20212;-69
2022/12/13 11:17:44;;;;;;;3.22;2.92;;;16.70;46.60;;;;;;5004775;28;20189;-69
2022/12/13 11:20:37;;;;;;;3.58;3.28;;;16.70;46.60;;;;;;4988633;28;20186;-70
2022/12/13 11:23:27;;;;;;;3.22;2.95;;;16.70;46.50;;;;;;4980577;28;20225;-70
2022/12/13 11:25:59;;;;;;;3.97;3.58;;;16.70;46.60;;;;;;5002202;28;20174;-70
2022/12/13 11:29:11;;;;;;;3.33;3.03;;;16.70;46.60;;;;;;4969946;28;20563;-70
2022/12/13 11:32:09;;;;;;;3.50;3.20;;;16.70;46.70;;;;;;4995639;28;20186;-70
2022/12/13 11:34:53;;;;;;;4.35;3.50;;;16.70;46.60;;;;;;4985394;28;20346;-70
2022/12/13 11:37:30;;;;;;;3.55;3.25;;;16.70;46.60;;;;;;4971992;28;20182;-70
2022/12/13 11:40:20;;;;;;;3.83;3.45;;;16.70;46.70;;;;;;4973549;28;20189;-69
2022/12/13 11:43:03;;;;;;;2.70;2.50;;;16.70;46.60;;;;;;5004641;28;20233;-69
2022/12/13 11:45:46;;;;;;;2.95;2.60;;;16.70;46.60;;;;;;4956472;28;20260;-70
2022/12/13 11:48:45;;;;;;;3.83;3.20;;;16.70;46.70;;;;;;4955903;28;20312;-70
2022/12/13 11:51:17;;;;;;;3.00;2.65;;;16.70;46.60;;;;;;4972407;28;20181;-70
2022/12/13 11:53:59;;;;;;;3.20;2.90;;;16.70;46.70;;;;;;4956427;28;20210;-69
2022/12/13 11:56:31;;;;;;;3.60;3.30;;;16.70;46.70;;;;;;4973247;28;20181;-68
2022/12/13 11:59:06;;;;;;;3.45;3.15;;;16.70;46.70;;;;;;4972411;28;20524;-69
2022/12/13 12:01:52;;;;;;;3.20;2.67;;;16.70;46.60;;;;;;4980451;28;20665;-69
2022/12/13 12:04:26;;;;;;;3.38;3.08;;;16.70;46.60;;;;;;4968773;28;20293;-70
2022/12/13 12:07:06;;;;;;;3.42;3.13;;;16.70;46.60;;;;;;4984902;28;20190;-70
2022/12/13 12:09:36;;;;;;;3.40;3.10;;;16.70;46.50;;;;;;4968819;28;20174;-70
2022/12/13 12:12:22;;;;;;;3.95;3.50;;;16.70;46.70;;;;;;4965249;28;20198;-70
2022/12/13 12:15:00;;;;;;;3.15;2.85;;;16.70;46.60;;;;;;5004023;28;20252;-70
2022/12/13 12:17:27;;;;;;;3.05;2.75;;;16.70;46.60;;;;;;4987555;28;20201;-70
2022/12/13 12:19:57;;;;;;;3.75;3.25;;;16.80;46.70;;;;;;4988022;28;20257;-71
2022/12/13 12:22:48;;;;;;;3.03;2.72;;;16.80;46.70;;;;;;4955742;28;20305;-70
2022/12/13 12:25:55;;;;;;;3.30;3.00;;;16.80;46.70;;;;;;4971996;28;20236;-70
2022/12/13 12:29:01;;;;;;;3.70;2.83;;;16.70;46.60;;;;;;5007263;28;20232;-70
2022/12/13 12:31:52;;;;;;;3.10;2.90;;;16.70;46.60;;;;;;4998521;28;20199;-70
2022/12/13 12:34:45;;;;;;;3.22;2.72;;;16.70;46.60;;;;;;4981507;28;20300;-70
2022/12/13 12:37:44;;;;;;;3.00;2.78;;;16.80;46.70;;;;;;4975265;28;20178;-70
2022/12/13 12:40:56;;;;;;;3.50;3.20;;;16.80;46.60;;;;;;4959184;28;20189;-70
2022/12/13 12:44:16;;;;;;;3.25;2.88;;;16.80;46.80;;;;;;4975318;28;20226;-70
2022/12/13 12:47:03;;;;;;;3.03;2.72;;;16.80;46.80;;;;;;4957749;28;20205;-70
2022/12/13 12:49:57;;;;;;;2.95;2.70;;;16.80;46.80;;;;;;4946739;28;20194;-70
2022/12/13 12:52:58;;;;;;;2.75;2.55;;;16.80;46.80;;;;;;4955560;29;20273;-69
2022/12/13 12:56:17;;;;;;;3.20;2.90;;;16.80;46.80;;;;;;4971724;28;20233;-69
2022/12/13 12:58:59;;;;;;;3.47;2.75;;;16.80;46.70;;;;;;4988291;28;20202;-70
2022/12/13 13:01:55;;;;;;;3.30;3.00;;;16.80;46.70;;;;;;4994544;28;20201;-70
2022/12/13 13:04:34;;;;;;;3.05;2.75;;;16.80;46.80;;;;;;4988113;28;20206;-70
2022/12/13 13:07:12;;;;;;;3.28;2.90;;;16.80;46.80;;;;;;4971241;28;20214;-69
2022/12/13 13:09:39;;;;;;;3.25;2.95;;;16.80;46.80;;;;;;4971356;28;20182;-70
2022/12/13 13:12:08;;;;;;;2.72;2.53;;;16.80;46.80;;;;;;4971373;28;20197;-70
2022/12/13 13:14:39;;;;;;;3.42;3.13;;;16.80;46.80;;;;;;4955202;29;20232;-70
2022/12/13 13:17:39;;;;;;;3.53;2.90;;;16.80;46.80;;;;;;4994436;28;20186;-70
2022/12/13 13:20:22;;;;;;;3.40;3.10;;;16.80;46.80;;;;;;4975180;28;20202;-69
2022/12/13 13:22:49;;;;;;;3.63;2.90;;;16.80;46.80;;;;;;4990875;28;20186;-70